Time;durP1;ratioP1;P1;durP2;ratioP2;P2;SDS_P1;SDS_P2;PMS_P1;PMS_P2;Temp;Humidity;BMP_temperature;BMP_pressure;BME280_temperature;BME280_humidity;BME280_pressure;Samples;Min_cycle;Max_cycle;Signal;HPM_P1;HPM_P2
2023/01/23 00:01:33;;;;;;;10.73;6.50;;;;;;;-1.11;100.00;99850.91;4890922;28;20649;-61
2023/01/23 00:04:00;;;;;;;11.10;7.20;;;;;;;-1.12;100.00;99852.66;4888094;29;20253;-61
2023/01/23 00:06:27;;;;;;;12.03;6.67;;;;;;;-1.19;100.00;99848.59;4892502;29;20232;-61
2023/01/23 00:08:55;;;;;;;9.97;5.80;;;;;;;-1.31;100.00;99854.09;4892093;29;20945;-61
2023/01/23 00:11:24;;;;;;;11.00;6.23;;;;;;;-1.32;100.00;99849.84;4894464;29;20227;-61
2023/01/23 00:13:51;;;;;;;9.90;6.13;;;;;;;-1.37;100.00;99850.81;4890382;29;20728;-61
2023/01/23 00:16:21;;;;;;;10.60;6.67;;;;;;;-1.45;100.00;99850.19;4895633;28;20589;-61
2023/01/23 00:18:49;;;;;;;12.73;7.13;;;;;;;-1.42;100.00;99847.56;4893929;29;20720;-61
2023/01/23 00:21:17;;;;;;;11.23;6.67;;;;;;;-1.46;100.00;99843.41;4894429;29;20240;-61
2023/01/23 00:23:45;;;;;;;11.17;6.80;;;;;;;-1.59;100.00;99844.63;4892807;29;20803;-60
2023/01/23 00:26:14;;;;;;;12.02;8.48;;;;;;;-1.70;100.00;99842.38;4893378;29;20985;-60
2023/01/23 00:28:44;;;;;;;11.87;7.60;;;;;;;-1.76;100.00;99835.69;4891161;28;20323;-61
2023/01/23 00:31:12;;;;;;;13.63;7.83;;;;;;;-1.51;100.00;99845.25;4895399;29;20242;-62
2023/01/23 00:33:41;;;;;;;12.83;7.90;;;;;;;-1.35;100.00;99845.63;4891829;29;20271;-60
2023/01/23 00:36:09;;;;;;;14.33;8.30;;;;;;;-1.35;100.00;99845.63;4892649;28;20227;-60
2023/01/23 00:38:35;;;;;;;14.13;8.17;;;;;;;-1.34;100.00;99837.91;4917149;28;20239;-61
2023/01/23 00:41:02;;;;;;;12.97;8.20;;;;;;;-1.24;100.00;99837.66;4895210;29;20703;-60
2023/01/23 00:43:30;;;;;;;14.10;8.43;;;;;;;-1.35;100.00;99830.25;4894970;29;20242;-60
2023/01/23 00:45:57;;;;;;;16.83;8.70;;;;;;;-1.42;100.00;99844.13;4893953;29;20243;-60
2023/01/23 00:48:24;;;;;;;12.53;7.77;;;;;;;-1.45;100.00;99837.41;4894008;29;20254;-61
2023/01/23 00:50:52;;;;;;;14.13;7.53;;;;;;;-1.39;100.00;99846.59;4893438;28;20247;-61
2023/01/23 00:53:19;;;;;;;12.77;7.63;;;;;;;-1.30;100.00;99848.06;4895621;29;20227;-60
2023/01/23 00:55:45;;;;;;;12.73;6.67;;;;;;;-1.31;100.00;99848.97;4894866;29;20715;-62
2023/01/23 00:58:12;;;;;;;11.17;6.60;;;;;;;-1.40;100.00;99853.47;4896790;29;20240;-61
2023/01/23 01:00:39;;;;;;;9.93;6.20;;;;;;;-1.50;100.00;99846.94;4890214;29;21120;-61
2023/01/23 01:03:07;;;;;;;13.37;7.20;;;;;;;-1.51;100.00;99852.94;4898291;29;20255;-61
2023/01/23 01:05:35;;;;;;;13.97;8.17;;;;;;;-1.38;100.00;99854.25;4896997;29;20284;-61
2023/01/23 01:08:04;;;;;;;13.20;7.63;;;;;;;-1.37;100.00;99848.25;4893834;28;20236;-61
2023/01/23 01:10:32;;;;;;;12.23;7.63;;;;;;;-1.31;100.00;99854.09;4895257;29;20249;-62
2023/01/23 01:13:01;;;;;;;13.23;7.40;;;;;;;-1.26;100.00;99853.06;4890465;29;20266;-62
2023/01/23 01:15:29;;;;;;;13.70;8.50;;;;;;;-1.14;100.00;99854.44;4894005;29;20224;-61
2023/01/23 01:17:56;;;;;;;14.60;8.03;;;;;;;-1.03;100.00;99859.22;4909907;28;20311;-60
2023/01/23 01:20:25;;;;;;;12.40;7.73;;;;;;;-0.98;100.00;99857.34;4893579;29;20224;-61
2023/01/23 01:22:51;;;;;;;10.93;7.40;;;;;;;-0.98;100.00;99853.94;4889081;29;20240;-62
2023/01/23 01:25:19;;;;;;;12.47;7.83;;;;;;;-1.03;100.00;99848.97;4894854;29;20234;-61
2023/01/23 01:27:46;;;;;;;11.70;6.97;;;;;;;-1.03;100.00;99859.22;4891162;29;20746;-61
2023/01/23 01:30:14;;;;;;;13.07;7.53;;;;;;;-1.05;100.00;99861.00;4895666;29;20367;-61
2023/01/23 01:32:42;;;;;;;12.33;7.27;;;;;;;-1.01;100.00;99857.44;4890038;29;20238;-62
2023/01/23 01:35:09;;;;;;;13.67;8.03;;;;;;;-0.95;100.00;99858.97;4897247;28;20235;-61
2023/01/23 01:37:37;;;;;;;11.73;7.47;;;;;;;-0.82;100.00;99851.75;4895759;29;20227;-62
2023/01/23 01:40:05;;;;;;;11.80;7.50;;;;;;;-0.74;100.00;99847.22;4896135;28;20235;-61
2023/01/23 01:42:39;;;;;;;12.73;7.43;;;;;;;-0.70;100.00;99853.09;4894441;29;20236;-61
2023/01/23 01:45:07;;;;;;;10.67;6.90;;;;;;;-0.67;100.00;99856.41;4893126;29;20237;-62
2023/01/23 01:47:34;;;;;;;11.67;7.40;;;;;;;-0.70;100.00;99851.38;4895362;29;20674;-62
2023/01/23 01:50:04;;;;;;;11.63;7.50;;;;;;;-0.73;100.00;99860.88;4891271;29;20315;-61
2023/01/23 01:52:31;;;;;;;12.27;7.57;;;;;;;-0.78;100.00;99866.16;4890603;29;20229;-62
2023/01/23 01:55:01;;;;;;;11.30;7.33;;;;;;;-0.84;100.00;99866.34;4885937;29;20239;-63
2023/01/23 01:57:31;;;;;;;11.53;7.73;;;;;;;-0.80;100.00;99871.31;4893239;29;20597;-61
2023/01/23 02:00:06;;;;;;;11.57;7.33;;;;;;;-0.84;100.00;99871.47;4888439;28;23061;-61
2023/01/23 02:02:44;;;;;;;12.43;7.50;;;;;;;-0.81;100.00;99868.81;4889541;29;20235;-62
2023/01/23 02:05:14;;;;;;;12.20;7.30;;;;;;;-0.78;100.00;99872.09;4892632;29;20251;-61
2023/01/23 02:07:45;;;;;;;10.10;6.73;;;;;;;-0.82;100.00;99875.66;4886882;29;20231;-62
2023/01/23 02:10:15;;;;;;;11.63;6.93;;;;;;;-0.86;100.00;99875.81;4891141;29;20244;-61
2023/01/23 02:12:46;;;;;;;11.20;7.00;;;;;;;-0.86;100.00;99871.50;4891002;28;20251;-60
2023/01/23 02:15:15;;;;;;;11.07;6.67;;;;;;;-0.71;100.00;99874.47;4895348;29;20263;-62
2023/01/23 02:17:43;;;;;;;10.50;6.50;;;;;;;-0.70;100.00;99879.56;4911154;28;20227;-62
2023/01/23 02:20:17;;;;;;;12.70;6.80;;;;;;;-0.69;100.00;99882.97;4918048;28;20691;-62
2023/01/23 02:22:52;;;;;;;9.40;6.43;;;;;;;-0.68;100.00;99880.38;4887912;29;20235;-62
2023/01/23 02:25:28;;;;;;;11.00;6.33;;;;;;;-0.55;100.00;99872.28;4890835;29;20338;-62
2023/01/23 02:27:56;;;;;;;9.90;6.47;;;;;;;-0.59;100.00;99886.91;4889215;29;20238;-62
2023/01/23 02:30:22;;;;;;;10.60;5.87;;;;;;;-0.56;100.00;99888.56;4899008;29;20227;-62
2023/01/23 02:32:52;;;;;;;9.50;5.77;;;;;;;-0.45;100.00;99891.59;4892467;29;20319;-60
2023/01/23 02:35:25;;;;;;;11.23;5.70;;;;;;;-0.47;100.00;99888.25;4898964;29;20239;-62
2023/01/23 02:37:55;;;;;;;8.67;5.87;;;;;;;-0.41;100.00;99892.34;4908261;28;20646;-61
2023/01/23 02:40:31;;;;;;;7.53;5.40;;;;;;;-0.36;100.00;99893.88;4915817;28;20236;-62
2023/01/23 02:43:00;;;;;;;9.97;6.20;;;;;;;-0.35;100.00;99889.59;4890939;29;20306;-63
2023/01/23 02:45:30;;;;;;;9.77;5.80;;;;;;;-0.34;100.00;99892.09;4893198;29;20231;-62
2023/01/23 02:47:57;;;;;;;10.57;6.20;;;;;;;-0.35;100.00;99892.97;4911599;28;20834;-62
2023/01/23 02:50:23;;;;;;;10.50;5.83;;;;;;;-0.40;100.00;99881.22;4887915;29;20225;-63
2023/01/23 02:52:53;;;;;;;11.23;6.50;;;;;;;-0.43;100.00;99887.25;4890685;29;20243;-63
2023/01/23 02:55:20;;;;;;;10.23;6.57;;;;;;;-0.41;100.00;99887.22;4911951;28;20219;-63
2023/01/23 02:57:47;;;;;;;9.83;6.40;;;;;;;-0.43;100.00;99879.56;4901355;28;20319;-63
2023/01/23 03:00:14;;;;;;;10.10;6.47;;;;;;;-0.35;100.00;99887.84;4893290;29;20234;-63
2023/01/23 03:02:41;;;;;;;10.13;6.57;;;;;;;-0.33;100.00;99887.81;4908678;28;20243;-63
2023/01/23 03:05:10;;;;;;;9.67;6.10;;;;;;;-0.31;100.00;99883.47;4890473;29;20243;-63
2023/01/23 03:07:37;;;;;;;9.93;6.57;;;;;;;-0.33;100.00;99883.50;4893479;29;20330;-63
2023/01/23 03:10:06;;;;;;;11.97;6.77;;;;;;;-0.28;100.00;99885.09;4910633;28;20242;-62
2023/01/23 03:12:33;;;;;;;10.70;6.20;;;;;;;-0.29;100.00;99886.81;4889363;29;20230;-63
2023/01/23 03:15:00;;;;;;;9.87;6.57;;;;;;;-0.27;100.00;99886.75;4883392;29;20247;-63
2023/01/23 03:17:29;;;;;;;11.10;7.00;;;;;;;-0.28;100.00;99892.78;4896092;29;20228;-62
2023/01/23 03:19:56;;;;;;;11.20;6.60;;;;;;;-0.30;100.00;99895.41;4901449;29;24085;-62
2023/01/23 03:22:23;;;;;;;11.27;6.50;;;;;;;-0.24;100.00;99896.94;4912052;28;20248;-62
2023/01/23 03:24:50;;;;;;;10.00;6.43;;;;;;;-0.27;100.00;99895.31;4888512;29;20224;-62
2023/01/23 03:27:16;;;;;;;10.00;6.33;;;;;;;-0.27;100.00;99879.91;4890587;29;20284;-63
2023/01/23 03:32:35;;;;;;;10.43;6.73;;;;;;;-0.16;100.00;99882.13;4916676;28;20273;-63
2023/01/23 03:35:02;;;;;;;12.60;6.90;;;;;;;-0.18;100.00;99887.31;4911614;28;20729;-62
2023/01/23 03:37:29;;;;;;;9.57;5.80;;;;;;;-0.14;100.00;99879.50;4890816;29;20776;-62
2023/01/23 03:42:41;;;;;;;11.00;6.20;;;;;;;-0.06;100.00;99880.09;4886915;29;20281;-63
2023/01/23 03:45:10;;;;;;;11.53;7.13;;;;;;;-0.13;100.00;99873.50;4893565;29;20238;-62
2023/01/23 03:47:38;;;;;;;9.43;6.50;;;;;;;-0.17;100.00;99873.59;4912836;28;20228;-62
2023/01/23 03:50:07;;;;;;;10.93;6.33;;;;;;;-0.18;100.00;99876.19;4895077;29;20236;-62
2023/01/23 03:52:37;;;;;;;9.67;5.97;;;;;;;-0.17;100.00;99877.88;4888220;29;20343;-62
2023/01/23 03:55:05;;;;;;;11.07;6.60;;;;;;;-0.21;100.00;99869.44;4892775;29;20259;-62
2023/01/23 03:57:32;;;;;;;10.70;6.27;;;;;;;-0.20;100.00;99867.69;4896420;29;20314;-62
2023/01/23 04:00:12;;;;;;;12.33;6.53;;;;;;;-0.21;100.00;99872.00;4884770;29;20263;-62
2023/01/23 04:05:29;;;;;;;10.10;6.63;;;;;;;-0.21;100.00;99882.28;4984666;23;20744;-62
2023/01/23 04:07:56;;;;;;;8.87;5.80;;;;;;;-0.21;100.00;99873.72;4913051;28;20610;-63
2023/01/23 04:10:23;;;;;;;11.63;6.90;;;;;;;-0.14;100.00;99876.94;4915777;28;20242;-63
2023/01/23 04:12:54;;;;;;;10.17;6.20;;;;;;;-0.20;100.00;99883.09;4911178;28;20238;-62
2023/01/23 04:15:21;;;;;;;9.67;6.13;;;;;;;-0.13;100.00;99878.63;4898263;28;20702;-62
2023/01/23 04:17:49;;;;;;;10.57;6.30;;;;;;;-0.17;100.00;99883.00;4908922;28;20292;-62
2023/01/23 04:20:16;;;;;;;11.20;6.47;;;;;;;-0.09;100.00;99887.91;4895228;29;20231;-62
2023/01/23 04:22:45;;;;;;;8.40;5.70;;;;;;;-0.09;100.00;99886.16;4901506;28;20235;-62
2023/01/23 04:25:11;;;;;;;10.57;5.73;;;;;;;-0.14;100.00;99898.31;4896146;29;20705;-63
2023/01/23 04:27:39;;;;;;;9.40;5.90;;;;;;;-0.09;100.00;99898.97;4906228;28;20258;-62
2023/01/23 04:33:00;;;;;;;10.57;6.30;;;;;;;-0.12;100.00;99903.41;4950973;23;20255;-56
2023/01/23 04:35:26;;;;;;;10.13;6.47;;;;;;;-0.06;100.00;99900.63;4920582;28;20242;-56
2023/01/23 04:37:55;;;;;;;11.33;6.43;;;;;;;-0.02;100.00;99900.47;4922941;29;20804;-56
2023/01/23 04:40:22;;;;;;;12.17;6.53;;;;;;;-0.07;100.00;99898.94;4927949;29;20288;-56
2023/01/23 04:42:53;;;;;;;10.70;6.37;;;;;;;-0.05;100.00;99907.44;4920970;29;20243;-57
2023/01/23 04:45:35;;;;;;;11.43;6.73;;;;;;;-0.08;100.00;99908.38;4916534;29;20251;-56
2023/01/23 04:48:19;;;;;;;10.20;6.27;;;;;;;-0.08;100.00;99912.66;4914334;29;20236;-53
2023/01/23 04:50:45;;;;;;;12.60;7.00;;;;;;;-0.06;100.00;99916.03;4915151;29;20693;-56
2023/01/23 04:53:13;;;;;;;9.33;5.97;;;;;;;-0.04;100.00;99909.94;4922944;29;20234;-54
2023/01/23 04:55:41;;;;;;;11.03;6.57;;;;;;;-0.09;100.00;99909.25;4924341;29;20338;-55
2023/01/23 04:58:11;;;;;;;10.33;6.63;;;;;;;-0.12;100.00;99908.53;4923630;29;20233;-57
2023/01/23 05:00:38;;;;;;;11.13;6.93;;;;;;;-0.12;100.00;99917.06;4935421;29;20296;-56
2023/01/23 05:03:05;;;;;;;11.63;6.87;;;;;;;-0.06;100.00;99913.47;4932609;29;20243;-56
2023/01/23 05:05:32;;;;;;;9.67;6.60;;;;;;;-0.11;100.00;99907.63;4916737;29;20239;-58
2023/01/23 05:08:00;;;;;;;12.63;6.87;;;;;;;-0.11;100.00;99912.78;4923558;29;20230;-55
2023/01/23 05:10:30;;;;;;;11.13;6.97;;;;;;;-0.10;100.00;99922.97;4921718;29;20241;-56
2023/01/23 05:13:00;;;;;;;12.13;7.23;;;;;;;-0.04;100.00;99909.13;4932267;29;20739;-57
2023/01/23 05:15:27;;;;;;;12.60;7.13;;;;;;;-0.07;100.00;99922.88;4922176;29;20378;-54
2023/01/23 05:17:54;;;;;;;12.60;7.53;;;;;;;-0.08;100.00;99910.09;4917074;29;20333;-54
2023/01/23 05:20:22;;;;;;;10.37;6.30;;;;;;;-0.02;100.00;99912.47;4923256;29;20231;-56
2023/01/23 05:22:52;;;;;;;12.77;7.53;;;;;;;0.02;100.00;99919.16;4914060;29;20235;-56
2023/01/23 05:25:23;;;;;;;12.23;6.97;;;;;;;-0.01;100.00;99912.41;4918720;29;20227;-56
2023/01/23 05:27:51;;;;;;;11.07;6.97;;;;;;;-0.01;100.00;99911.56;4923170;29;20235;-58
2023/01/23 05:30:21;;;;;;;13.00;7.73;;;;;;;-0.10;100.00;99911.88;4924955;29;20245;-55
2023/01/23 05:32:50;;;;;;;11.30;6.60;;;;;;;-0.09;100.00;99919.53;4919616;29;20244;-56
2023/01/23 05:35:20;;;;;;;12.17;7.33;;;;;;;-0.11;100.00;99913.59;4919765;29;20239;-56
2023/01/23 05:37:49;;;;;;;13.23;7.40;;;;;;;-0.11;100.00;99918.72;4917106;29;20231;-55
2023/01/23 05:40:18;;;;;;;11.57;7.00;;;;;;;-0.11;100.00;99925.59;4919017;29;20473;-57
2023/01/23 05:43:06;;;;;;;15.13;7.83;;;;;;;-0.08;100.00;99908.38;4911183;29;20238;-56
2023/01/23 05:45:59;;;;;;;12.53;7.00;;;;;;;-0.06;100.00;99916.03;4913860;29;20248;-54
2023/01/23 05:48:40;;;;;;;12.80;7.63;;;;;;;-0.14;100.00;99918.84;4923779;29;20366;-57
2023/01/23 05:51:10;;;;;;;13.27;7.53;;;;;;;-0.12;100.00;99919.63;4922384;29;20238;-54
2023/01/23 05:53:37;;;;;;;14.83;7.70;;;;;;;-0.11;100.00;99923.88;4934174;29;20239;-57
2023/01/23 05:56:08;;;;;;;15.60;8.30;;;;;;;-0.10;100.00;99924.72;4917358;29;20250;-57
2023/01/23 05:58:44;;;;;;;15.27;8.27;;;;;;;-0.12;100.00;99931.63;4917874;29;20231;-57
2023/01/23 06:01:32;;;;;;;13.27;7.73;;;;;;;-0.08;100.00;99928.91;4926793;29;20371;-57
2023/01/23 06:04:19;;;;;;;13.83;7.70;;;;;;;-0.07;100.00;99920.31;4918902;29;20584;-56
2023/01/23 06:07:02;;;;;;;14.47;8.50;;;;;;;-0.07;100.00;99924.63;4922090;29;20238;-54
2023/01/23 06:09:29;;;;;;;15.30;9.03;;;;;;;-0.08;100.00;99928.06;4921506;29;20269;-55
2023/01/23 06:11:56;;;;;;;15.27;8.60;;;;;;;-0.10;100.00;99915.28;4918160;29;20710;-57
2023/01/23 06:14:24;;;;;;;14.50;8.37;;;;;;;-0.10;100.00;99911.88;4918466;29;20228;-53
2023/01/23 06:16:51;;;;;;;19.10;9.47;;;;;;;-0.12;100.00;99911.09;4913070;29;20265;-56
2023/01/23 06:19:19;;;;;;;17.63;8.90;;;;;;;-0.18;100.00;99915.53;4933202;29;20340;-56
2023/01/23 06:21:46;;;;;;;15.60;8.67;;;;;;;-0.15;100.00;99917.16;4914048;29;20242;-56
2023/01/23 06:24:13;;;;;;;18.93;9.57;;;;;;;-0.15;100.00;99914.59;4919422;29;20247;-57
2023/01/23 06:26:39;;;;;;;19.23;9.87;;;;;;;-0.20;100.00;99909.63;4923199;29;20235;-56
2023/01/23 06:29:06;;;;;;;20.13;10.50;;;;;;;-0.18;100.00;99914.69;4919098;29;20267;-55
2023/01/23 06:31:34;;;;;;;16.37;9.53;;;;;;;-0.18;100.00;99912.13;4916988;29;20702;-56
2023/01/23 06:34:02;;;;;;;17.37;8.40;;;;;;;-0.13;100.00;99914.56;4915918;29;20231;-56
2023/01/23 06:36:35;;;;;;;17.20;9.03;;;;;;;-0.07;100.00;99922.88;4918891;29;20294;-57
2023/01/23 06:39:02;;;;;;;15.57;9.23;;;;;;;-0.06;100.00;99923.72;4913818;29;20239;-55
2023/01/23 06:41:36;;;;;;;17.03;8.93;;;;;;;-0.08;100.00;99934.03;4922723;29;20301;-56
2023/01/23 06:44:06;;;;;;;17.30;9.23;;;;;;;-0.08;100.00;99935.78;4919132;29;20325;-56
2023/01/23 06:46:34;;;;;;;16.53;9.57;;;;;;;-0.13;100.00;99933.34;4922619;29;20240;-57
2023/01/23 06:49:01;;;;;;;16.10;9.53;;;;;;;-0.09;100.00;99940.06;4916957;29;20239;-56
2023/01/23 06:51:29;;;;;;;18.37;10.07;;;;;;;-0.06;100.00;99936.56;4917024;29;20258;-55
2023/01/23 06:53:57;;;;;;;16.37;9.27;;;;;;;-0.05;100.00;99930.53;4914478;29;20239;-57
2023/01/23 06:56:23;;;;;;;16.70;9.40;;;;;;;-0.04;100.00;99942.47;4925034;29;20240;-55
2023/01/23 06:58:52;;;;;;;18.23;10.00;;;;;;;-0.11;100.00;99941.00;4914141;29;20231;-56
2023/01/23 07:01:25;;;;;;;18.97;9.80;;;;;;;-0.07;100.00;99953.69;4920421;29;20234;-56
2023/01/23 07:04:22;;;;;;;17.87;9.30;;;;;;;-0.03;100.00;99957.81;4903276;29;20371;-57
2023/01/23 07:06:50;;;;;;;15.03;8.83;;;;;;;0.03;100.00;99958.50;4915322;29;20241;-55
2023/01/23 07:09:18;;;;;;;15.40;8.73;;;;;;;0.10;100.00;99962.56;4920662;29;20235;-56
2023/01/23 07:11:57;;;;;;;17.70;8.80;;;;;;;0.07;99.86;99966.03;4915444;29;20914;-54
2023/01/23 07:14:25;;;;;;;17.50;9.70;;;;;;;0.03;100.00;99968.78;4916617;29;20224;-54
2023/01/23 07:16:54;;;;;;;16.37;9.43;;;;;;;0.11;100.00;99967.63;4921113;29;20730;-56
2023/01/23 07:19:21;;;;;;;18.80;9.87;;;;;;;0.15;100.00;99973.50;4929061;29;20249;-56
2023/01/23 07:21:48;;;;;;;17.80;9.27;;;;;;;0.14;100.00;99972.66;4916678;29;20275;-56
2023/01/23 07:24:15;;;;;;;16.13;9.27;;;;;;;0.12;100.00;99977.00;4916076;29;20450;-53
2023/01/23 07:26:41;;;;;;;19.50;10.00;;;;;;;0.11;100.00;99985.59;4915866;29;20248;-55
2023/01/23 07:29:08;;;;;;;24.43;13.10;;;;;;;0.06;100.00;99974.63;4914979;29;20246;-55
2023/01/23 07:31:35;;;;;;;16.83;9.97;;;;;;;0.08;100.00;99982.31;4915793;29;20238;-56
2023/01/23 07:34:02;;;;;;;16.97;9.30;;;;;;;0.10;100.00;99983.91;4914061;29;20235;-55
2023/01/23 07:36:30;;;;;;;22.43;9.70;;;;;;;0.16;100.00;99992.31;4916757;29;20245;-56
2023/01/23 07:38:57;;;;;;;28.50;10.33;;;;;;;0.14;99.43;99994.94;4911028;29;20257;-54
2023/01/23 07:41:24;;;;;;;23.10;9.67;;;;;;;0.21;98.46;99985.28;4914290;29;20232;-56
2023/01/23 07:43:51;;;;;;;18.80;9.77;;;;;;;0.22;97.52;99990.41;4913838;29;20242;-53
2023/01/23 07:46:17;;;;;;;18.53;9.13;;;;;;;0.20;98.55;99987.03;4917551;29;20283;-57
2023/01/23 07:48:44;;;;;;;16.23;8.97;;;;;;;0.22;98.80;99987.81;4911886;29;20229;-56
2023/01/23 07:51:10;;;;;;;15.87;8.23;;;;;;;0.25;99.04;99987.72;4919043;29;20314;-55
2023/01/23 07:53:38;;;;;;;14.23;8.03;;;;;;;0.31;99.38;99981.53;4911421;29;20235;-55
2023/01/23 07:56:06;;;;;;;15.63;7.70;;;;;;;0.33;98.73;99981.50;4913908;29;20761;-59
2023/01/23 07:58:32;;;;;;;15.90;7.80;;;;;;;0.33;97.91;99978.91;4923122;29;20282;-54
2023/01/23 08:00:59;;;;;;;15.50;8.27;;;;;;;0.34;96.65;99978.03;4914102;29;20292;-55
2023/01/23 08:03:27;;;;;;;15.33;8.67;;;;;;;0.43;95.72;99980.28;4915640;29;20227;-55
2023/01/23 08:05:54;;;;;;;14.80;8.30;;;;;;;0.47;95.29;99979.28;4913031;29;20233;-53
2023/01/23 08:08:21;;;;;;;28.27;13.07;;;;;;;0.48;95.05;99983.53;4916013;29;20733;-55
2023/01/23 08:10:48;;;;;;;77.93;28.63;;;;;;;0.46;96.40;99982.75;4911529;29;20719;-54
2023/01/23 08:13:15;;;;;;;18.00;8.80;;;;;;;0.49;94.80;99979.22;4919404;29;20242;-56
2023/01/23 08:15:42;;;;;;;19.87;8.20;;;;;;;0.63;93.33;99971.03;4912662;29;20234;-55
2023/01/23 08:18:08;;;;;;;14.87;7.33;;;;;;;0.67;92.01;99978.59;4915371;29;20242;-55
2023/01/23 08:20:35;;;;;;;24.63;8.53;;;;;;;0.70;90.97;99975.91;4917144;29;20700;-58
2023/01/23 08:23:01;;;;;;;31.07;11.73;;;;;;;0.75;91.99;99982.63;4911777;29;20561;-57
2023/01/23 08:25:28;;;;;;;15.13;7.23;;;;;;;0.79;91.16;99977.28;4913854;29;20226;-56
2023/01/23 08:27:56;;;;;;;16.80;7.57;;;;;;;0.83;90.54;99978.88;4915524;29;20638;-57
2023/01/23 08:30:22;;;;;;;16.80;10.47;;;;;;;0.85;91.22;99976.25;4919501;29;20239;-57
2023/01/23 08:32:49;;;;;;;13.80;7.90;;;;;;;0.86;91.03;99977.94;4915690;29;20239;-56
2023/01/23 08:35:16;;;;;;;11.73;6.93;;;;;;;0.82;91.24;99971.22;4917459;29;20627;-57
2023/01/23 08:37:43;;;;;;;11.47;6.43;;;;;;;0.84;89.96;99972.00;4916115;29;20295;-55
2023/01/23 08:40:10;;;;;;;15.10;7.80;;;;;;;0.88;91.42;99971.00;4918472;29;20307;-55
2023/01/23 08:42:37;;;;;;;18.47;9.50;;;;;;;0.96;94.76;99970.72;4917629;29;20234;-57
2023/01/23 08:45:06;;;;;;;11.03;6.63;;;;;;;0.94;87.60;99967.34;4917958;29;20235;-57
2023/01/23 08:47:35;;;;;;;14.80;8.03;;;;;;;0.95;89.33;99967.31;4921492;29;20308;-54
2023/01/23 08:50:02;;;;;;;11.90;6.57;;;;;;;0.98;89.38;99972.34;4917384;29;20239;-57
2023/01/23 08:52:28;;;;;;;11.97;6.70;;;;;;;0.92;88.45;99976.84;4919753;29;20234;-55
2023/01/23 08:54:55;;;;;;;10.60;6.57;;;;;;;1.03;88.25;99978.16;4918356;29;20224;-58
2023/01/23 08:57:22;;;;;;;13.43;6.37;;;;;;;1.14;86.15;99976.91;4920352;29;20253;-57
2023/01/23 08:59:48;;;;;;;16.17;9.27;;;;;;;1.07;86.77;99978.03;4914977;29;20239;-57
2023/01/23 09:02:16;;;;;;;21.03;11.33;;;;;;;1.02;86.70;99979.06;4918483;29;20850;-54
2023/01/23 09:04:43;;;;;;;10.03;5.33;;;;;;;1.15;85.36;99984.56;4915613;29;20228;-57
2023/01/23 09:07:09;;;;;;;11.17;6.10;;;;;;;1.13;85.48;99983.78;4921489;29;20239;-57
2023/01/23 09:09:36;;;;;;;10.90;6.27;;;;;;;1.17;86.21;99987.94;4914006;29;20235;-57
2023/01/23 09:12:03;;;;;;;11.57;7.07;;;;;;;1.19;85.11;99985.28;4919892;29;20242;-54
2023/01/23 09:14:29;;;;;;;9.90;6.07;;;;;;;1.21;82.55;99975.78;4917966;29;20243;-57
2023/01/23 09:16:56;;;;;;;9.40;5.53;;;;;;;1.28;82.53;99973.81;4913916;29;20573;-56
2023/01/23 09:19:24;;;;;;;12.13;6.10;;;;;;;1.33;82.84;99983.03;4916658;29;20222;-56
2023/01/23 09:21:53;;;;;;;9.27;5.57;;;;;;;1.51;80.70;99988.38;4915112;29;20246;-55
2023/01/23 09:24:19;;;;;;;7.63;5.27;;;;;;;1.51;80.17;99984.97;4917456;29;20269;-54
2023/01/23 09:26:46;;;;;;;10.97;5.40;;;;;;;1.47;81.58;99989.38;4917373;29;20228;-56
2023/01/23 09:29:13;;;;;;;14.03;5.87;;;;;;;1.61;79.66;99991.41;4917815;29;20238;-56
2023/01/23 09:31:40;;;;;;;10.97;5.57;;;;;;;1.84;79.82;99992.25;4913862;29;20295;-56
2023/01/23 09:34:07;;;;;;;11.27;5.73;;;;;;;1.93;79.80;99997.03;4916417;29;20231;-57
2023/01/23 09:36:35;;;;;;;9.73;5.83;;;;;;;2.04;78.55;99997.44;4916255;29;20246;-54
2023/01/23 09:39:02;;;;;;;11.30;6.07;;;;;;;1.95;78.24;99989.25;4914316;29;20242;-58
2023/01/23 09:41:30;;;;;;;12.23;6.97;;;;;;;2.09;77.56;99994.69;4919279;29;20311;-55
2023/01/23 09:44:00;;;;;;;11.27;7.03;;;;;;;1.98;79.55;99989.13;4915986;29;20244;-55
2023/01/23 09:46:32;;;;;;;12.13;6.60;;;;;;;2.03;78.60;99987.22;4919878;29;20534;-54
2023/01/23 09:49:02;;;;;;;12.83;7.10;;;;;;;1.84;79.08;99987.09;4914232;29;20235;-57
2023/01/23 09:51:38;;;;;;;12.73;6.97;;;;;;;1.83;80.78;99986.28;4918072;29;20242;-55
2023/01/23 09:54:18;;;;;;;11.63;6.47;;;;;;;1.83;79.11;99970.81;4917585;29;20236;-54
2023/01/23 09:56:49;;;;;;;13.03;7.43;;;;;;;1.72;81.15;99973.00;4912199;29;20322;-54
2023/01/23 09:59:27;;;;;;;11.73;6.47;;;;;;;1.49;80.86;99974.72;4917132;29;20318;-54
2023/01/23 10:01:54;;;;;;;12.73;7.13;;;;;;;1.54;81.98;99972.81;4905331;29;20231;-58
2023/01/23 10:04:22;;;;;;;12.60;7.47;;;;;;;1.67;82.55;99970.59;4913896;28;20236;-58
2023/01/23 10:07:09;;;;;;;11.43;6.77;;;;;;;1.50;80.95;99962.72;4913212;29;20295;-57
2023/01/23 10:09:51;;;;;;;12.50;6.50;;;;;;;1.57;81.59;99967.53;4919959;29;20237;-57
2023/01/23 10:12:31;;;;;;;12.10;7.20;;;;;;;1.63;81.97;99979.31;4916751;29;20238;-59
2023/01/23 10:15:12;;;;;;;12.50;7.20;;;;;;;1.68;84.19;99971.44;4914260;29;20240;-55
2023/01/23 10:17:47;;;;;;;11.70;6.97;;;;;;;1.64;81.00;99968.13;4916423;29;20943;-58
2023/01/23 10:20:29;;;;;;;15.10;6.47;;;;;;;1.74;80.02;99977.16;4925608;29;20287;-58
2023/01/23 10:23:05;;;;;;;10.90;6.13;;;;;;;1.87;79.06;99972.38;4914137;29;20225;-58
2023/01/23 10:25:39;;;;;;;12.40;6.93;;;;;;;1.77;79.37;99971.06;4917803;29;20235;-57
2023/01/23 10:28:18;;;;;;;11.93;6.93;;;;;;;1.88;79.47;99968.91;4919486;29;20259;-55
2023/01/23 10:30:49;;;;;;;11.97;5.70;;;;;;;1.79;80.32;99974.41;4914712;29;20294;-57
2023/01/23 10:33:17;;;;;;;15.83;7.00;;;;;;;1.75;81.10;99980.59;4918222;29;20228;-58
2023/01/23 10:35:49;;;;;;;11.27;6.17;;;;;;;1.57;80.22;99977.03;4913531;29;20235;-58
2023/01/23 10:38:25;;;;;;;13.00;7.17;;;;;;;1.70;81.34;99985.09;4920002;29;20691;-57
2023/01/23 10:43:39;;;;;;;12.03;7.17;;;;;;;1.58;80.70;99994.13;4915097;29;20231;-54
2023/01/23 10:46:12;;;;;;;12.13;6.60;;;;;;;1.62;80.17;100005.97;4915052;29;20703;-59
2023/01/23 10:48:42;;;;;;;12.27;6.53;;;;;;;1.54;80.65;99992.59;4916551;29;20587;-56
2023/01/23 10:51:30;;;;;;;10.90;6.50;;;;;;;1.79;80.80;99986.44;4916376;29;20230;-56
2023/01/23 10:54:01;;;;;;;14.57;7.30;;;;;;;2.16;89.51;99972.91;4911775;29;20678;-57
2023/01/23 10:56:30;;;;;;;16.73;8.37;;;;;;;1.97;81.66;99974.59;4918809;29;20223;-56
2023/01/23 10:59:00;;;;;;;33.73;16.20;;;;;;;2.20;81.00;99974.44;4912051;29;20247;-58
2023/01/23 11:01:29;;;;;;;64.07;29.97;;;;;;;1.97;80.27;99983.13;4916838;29;20282;-58
2023/01/23 11:03:56;;;;;;;14.37;7.90;;;;;;;1.94;80.42;99987.59;4914962;29;20255;-56
2023/01/23 11:06:24;;;;;;;12.37;6.93;;;;;;;1.95;80.49;99981.53;4917638;29;20228;-58
2023/01/23 11:08:55;;;;;;;13.67;7.40;;;;;;;1.97;79.70;99974.59;4916066;29;20229;-57
2023/01/23 11:11:24;;;;;;;10.63;5.60;;;;;;;1.92;79.64;99983.34;4915123;29;20236;-58
2023/01/23 11:14:07;;;;;;;14.50;6.80;;;;;;;2.03;78.12;99977.72;4915490;29;20778;-58
2023/01/23 11:16:35;;;;;;;13.37;7.33;;;;;;;2.06;79.81;99979.38;4915890;29;20231;-59
2023/01/23 11:19:16;;;;;;;12.40;7.10;;;;;;;1.71;80.02;99973.88;4912769;29;20350;-57
2023/01/23 11:21:52;;;;;;;16.60;7.67;;;;;;;1.49;81.02;99982.44;4921288;29;20244;-57
2023/01/23 11:24:20;;;;;;;18.67;11.60;;;;;;;1.30;82.30;99972.84;4916287;29;20306;-57
2023/01/23 11:26:47;;;;;;;14.47;7.43;;;;;;;1.18;84.44;99981.03;4912328;29;20238;-58
2023/01/23 11:29:24;;;;;;;13.83;6.77;;;;;;;1.32;83.60;99986.50;4919191;29;20230;-58
2023/01/23 11:31:55;;;;;;;16.50;7.53;;;;;;;1.56;83.93;99989.03;4912881;29;20235;-57
2023/01/23 11:34:25;;;;;;;16.50;8.50;;;;;;;1.83;82.56;99978.56;4915215;29;20219;-57
2023/01/23 11:36:59;;;;;;;13.63;7.63;;;;;;;2.12;81.00;99978.25;4916145;29;20234;-58
2023/01/23 11:39:41;;;;;;;17.03;9.27;;;;;;;1.89;80.35;99974.88;4916653;29;20583;-58
2023/01/23 11:42:10;;;;;;;14.90;7.77;;;;;;;1.80;81.09;99976.09;4914878;29;20286;-59
2023/01/23 11:44:41;;;;;;;16.13;6.70;;;;;;;1.50;81.16;99958.38;4913248;29;20224;-56
2023/01/23 11:47:32;;;;;;;14.37;8.07;;;;;;;1.89;79.78;99973.16;4913253;29;20223;-57
2023/01/23 11:50:26;;;;;;;14.30;7.90;;;;;;;1.75;81.16;99958.25;4914469;29;20244;-58